Weather reports worldwide

Advertisment
Pian Rosa, Italy (16052): temperature & dewpoint: 15.05.2019 05:00:00 - 21.05.2019 05:00:00 (CEST)Pian Rosa, Italy (16052): wind speed: 15.05.2019 05:00:00 - 21.05.2019 05:00:00 (CEST)Pian Rosa, Italy (16052): wind direction: 15.05.2019 05:00:00 - 21.05.2019 05:00:00 (CEST)Pian Rosa, Italy (16052): visibility: 15.05.2019 05:00:00 - 21.05.2019 05:00:00 (CEST)Pian Rosa, Italy (16052): sunshine duration: 15.05.2019 05:00:00 - 21.05.2019 05:00:00 (CEST)
Date & Time tt [°C] td [°C] ff [km/h] ff [kn] dd vv [km] sd [min]
21.05.2019 05:00:00 -6,8 -7,1 46 25 NE 1,0 -
21.05.2019 04:00:00 -6,8 -7,1 46 25 NE 7 -
21.05.2019 03:00:00 -6,2 -6,3 46 25 NE 5 -
21.05.2019 02:00:00 -6,0 -6,0 37 20 ENE 0,8 -
21.05.2019 01:00:00 -6,0 -6,0 28 15 NNE 0,1 0
21.05.2019 00:00:00 -5,8 -5,8 28 15 NE 0,1 0
20.05.2019 23:00:00 -5,8 -5,8 18 10 NE 0,1 0
20.05.2019 22:00:00 -5,6 -5,6 28 15 NE 0,1 0
20.05.2019 21:00:00 -5,6 -5,6 28 15 NNE 0,1 0
20.05.2019 20:00:00 -5,4 -5,4 22 12 N 0,1 0
20.05.2019 19:00:00 -5,2 -5,2 13 7 NNE 0,1 0
20.05.2019 18:00:00 -5,0 -5,0 15 8 NNE 0,1 0
20.05.2019 17:00:00 -5,0 -5,0 15 8 NNE 0,1 0
20.05.2019 16:00:00 -5,0 -5,0 15 8 NNE 0,1 0
20.05.2019 15:00:00 -4,8 -4,8 15 8 NE 0,1 0
20.05.2019 14:00:00 -5,0 -5,0 18 10 NNE 0,1 0
20.05.2019 13:00:00 -5,4 -5,4 18 10 N 0,1 0
20.05.2019 12:00:00 -5,6 -5,6 28 15 NE 0,1 0
20.05.2019 11:00:00 -5,8 -5,8 28 15 NNE 0,2 0
20.05.2019 10:00:00 -5,8 -5,8 37 20 NE 0,1 0
20.05.2019 09:00:00 -6,0 -6,0 37 20 NE 0,1 0
20.05.2019 08:00:00 -6,0 -6,0 28 15 ENE 0,1 0
20.05.2019 07:00:00 -5,8 -5,8 22 12 ENE 0,1 -
20.05.2019 06:00:00 -5,8 -5,8 22 12 ENE 0,1 -
20.05.2019 05:00:00 -5,6 -5,6 28 15 ENE 0,1 -
20.05.2019 04:00:00 -5,6 -5,6 28 15 NE 0,1 -
20.05.2019 03:00:00 -5,6 -5,6 9 5 ENE 0,1 -
20.05.2019 02:00:00 -5,4 -5,4 9 5 NE 0,1 -
20.05.2019 01:00:00 -5,2 -5,2 15 8 NE 0,1 -
20.05.2019 00:00:00 -5,2 -5,2 9 5 NNE 0,1 -
19.05.2019 23:00:00 -5,2 -5,2 18 10 ENE 0,1 -
19.05.2019 22:00:00 -5,0 -5,0 28 15 ENE 0,1 -
19.05.2019 21:00:00 -5,0 -5,0 0 0 N 0,1 -
19.05.2019 20:00:00 -3,0 -6,3 0 0 N 0,1 0
19.05.2019 19:00:00 -2,0 -5,8 0 0 N 0,1 0
19.05.2019 18:00:00 -1,8 -6,0 0 0 N 0,1 0
19.05.2019 17:00:00 -2,0 -5,0 18 10 ENE 0,1 0
19.05.2019 16:00:00 -2,0 -5,8 9 5 ENE 0,1 -
19.05.2019 15:00:00 -1,0 -3,2 0 0 N 0,1 0
19.05.2019 14:00:00 -4,0 -4,0 13 7 ENE 0,1 0
19.05.2019 13:00:00 -5,0 -5,0 18 10 ENE 0,1 0
19.05.2019 12:00:00 -5,4 -5,4 18 10 ENE 0,1 0
19.05.2019 11:00:00 -5,8 -5,8 9 5 ENE 0,1 0
19.05.2019 10:00:00 -6,0 -6,0 9 5 ENE 0,1 0
19.05.2019 09:00:00 -6,2 -6,2 15 8 ENE 0,1 0
19.05.2019 08:00:00 -6,2 -6,2 18 10 ENE 0,1 0
19.05.2019 07:00:00 -6,4 -6,4 18 10 ENE 0,1 0
19.05.2019 06:00:00 -6,4 -6,4 22 12 ENE 0,1 -
19.05.2019 05:00:00 -5,6 -5,6 0 0 N 0,1 -
19.05.2019 04:00:00 -5,2 -6,6 0 0 N 0,5 -
19.05.2019 03:00:00 -5,4 -6,8 0 0 N 2,0 -
19.05.2019 02:00:00 -6,0 -7,7 0 0 N 0,8 -
19.05.2019 01:00:00 -6,0 -6,4 0 0 N 0,3 -
19.05.2019 00:00:00 -5,8 -7,0 0 0 N 0,8 -
18.05.2019 23:00:00 -5,4 -8,0 9 5 ENE 0,8 -
18.05.2019 22:00:00 -4,0 -7,3 0 0 N 0,8 -
18.05.2019 21:00:00 -3,6 -7,5 0 0 N 0,8 0
18.05.2019 20:00:00 -3,4 -7,5 0 0 N 0,8 0
18.05.2019 19:00:00 -1,6 -6,2 9 5 SSW 0,5 0
18.05.2019 18:00:00 -1,0 -6,3 9 5 SSW 0,8 0
18.05.2019 17:00:00 -1,6 -6,9 5 3 SSW 0,8 0
18.05.2019 16:00:00 0,4 -5,8 9 5 SSW 0,8 0
18.05.2019 15:00:00 0,2 -6,4 9 5 S 0,8 0
18.05.2019 14:00:00 0,2 -6,2 0 0 N 0,5 0
18.05.2019 13:00:00 -0,4 -6,8 0 0 N 0,8 0
18.05.2019 12:00:00 -1,0 -6,0 0 0 N 0,8 0
18.05.2019 11:00:00 -1,6 -4,8 0 0 N 0,8 0
18.05.2019 10:00:00 -5,0 -6,2 0 0 N 0,8 0
18.05.2019 09:00:00 -4,6 -6,7 0 0 N 0,8 0
18.05.2019 08:00:00 -6,0 -7,2 0 0 N 0,3 0
18.05.2019 07:00:00 -6,4 -8,2 0 0 N 0,3 -
18.05.2019 06:00:00 -6,4 -7,9 28 15 ESE 0,3 -
18.05.2019 05:00:00 -6,4 -7,4 28 15 SE 0,3 -
18.05.2019 04:00:00 -6,2 -7,3 37 20 ESE 0,1 -
18.05.2019 03:00:00 -6,4 -7,3 37 20 ESE 0,1 -
18.05.2019 02:00:00 -6,4 -7,4 18 10 SSE 0,1 -
18.05.2019 01:00:00 -6,0 -7,4 28 15 SE 0,1 -
18.05.2019 00:00:00 -5,8 -7,5 46 25 ESE 0,1 -
17.05.2019 23:00:00 -5,6 -7,0 28 15 ESE 0,1 -
17.05.2019 22:00:00 -5,6 -7,3 28 15 S 0,1 -
17.05.2019 21:00:00 -5,6 -7,6 9 5 S 0,1 -
17.05.2019 20:00:00 -4,8 -7,4 9 5 S 0,1 0
17.05.2019 19:00:00 -5,0 -7,7 15 8 SSE 0,1 0
17.05.2019 18:00:00 -3,8 -7,4 0 0 N 0,1 0
17.05.2019 17:00:00 -3,2 -6,8 0 0 N 0,1 0
17.05.2019 16:00:00 -2,8 -7,0 18 10 SSE 0,1 0
17.05.2019 15:00:00 -3,0 -7,5 0 0 N 0,1 0
17.05.2019 14:00:00 -1,8 -6,4 15 8 S 0,1 0
17.05.2019 13:00:00 -2,4 -6,4 18 10 S 0,1 0
17.05.2019 12:00:00 -3,4 -5,7 9 5 S 0,1 0
17.05.2019 11:00:00 -3,6 -5,1 18 10 SSW 0,1 0
17.05.2019 10:00:00 -5,0 -6,4 15 8 SSW 0,1 0
17.05.2019 09:00:00 -6,0 -6,0 18 10 SSW 0,1 0
17.05.2019 08:00:00 -6,6 -6,6 18 10 S 0,1 0
17.05.2019 07:00:00 -6,8 -6,8 28 15 S 0,1 0
17.05.2019 06:00:00 -7,0 -7,0 28 15 S 0,8 -
17.05.2019 05:00:00 -7,0 -7,7 18 10 S 10 -
17.05.2019 04:00:00 -7,0 -9,1 0 0 N 10 -
17.05.2019 03:00:00 -7,0 -8,5 0 0 N 10 -
17.05.2019 02:00:00 -7,2 -9,9 0 0 N 10 -
17.05.2019 01:00:00 -6,8 -7,3 0 0 N 10 -
17.05.2019 00:00:00 -6,8 -9,4 0 0 N 10 -
16.05.2019 23:00:00 -6,0 -8,0 0 0 N 0,8 -
16.05.2019 22:00:00 -5,4 -7,4 0 0 N 0,1 -
16.05.2019 21:00:00 -4,6 -7,1 0 0 N 0,1 0
16.05.2019 20:00:00 -3,6 -7,4 0 0 N 1,0 0
16.05.2019 19:00:00 -2,6 -7,0 0 0 N 1,0 0
16.05.2019 18:00:00 -1,4 -6,7 9 5 SSW 1,0 0
16.05.2019 17:00:00 -0,4 -7,7 0 0 N 1,0 0
16.05.2019 16:00:00 0,2 -6,4 9 5 S 0,8 0
16.05.2019 15:00:00 0,4 -6,5 0 0 N 0,8 0
16.05.2019 14:00:00 -0,4 -6,6 9 5 S 0,8 0
16.05.2019 13:00:00 -0,6 -6,8 0 0 N 0,8 24
16.05.2019 12:00:00 -0,8 -7,0 0 0 N 1,0 60
16.05.2019 11:00:00 -1,8 -12,2 0 0 N 75 60
16.05.2019 10:00:00 -1,8 -13,6 0 0 N 75 60
16.05.2019 09:00:00 -2,6 -15,6 0 0 N 80 60
16.05.2019 08:00:00 -4,0 -16,9 0 0 N 80 6
16.05.2019 07:00:00 -4,8 -16,6 9 5 E 50 -
16.05.2019 06:00:00 -5,4 -15,5 15 8 E 30 -
16.05.2019 05:00:00 -4,8 -16,0 0 0 N 10 -
16.05.2019 04:00:00 -5,0 -15,1 5 3 S 10 -
16.05.2019 03:00:00 -5,0 -14,8 4 2 - 10 -
16.05.2019 02:00:00 -5,4 -15,2 28 15 E 10 -
16.05.2019 01:00:00 -5,6 -14,4 9 5 E 10 -
16.05.2019 00:00:00 -6,4 -10,8 9 5 E 10 -
15.05.2019 23:00:00 -6,8 -9,2 9 5 E 10 -
15.05.2019 22:00:00 -7,2 -8,1 9 5 E 20 -
15.05.2019 21:00:00 -7,0 -7,8 8 4 E 50 42
15.05.2019 20:00:00 -6,8 -8,0 18 10 ENE 75 60
15.05.2019 19:00:00 -6,6 -8,1 15 8 ENE 80 60
15.05.2019 18:00:00 -6,4 -8,2 28 15 ENE 75 60
15.05.2019 17:00:00 -6,8 -8,7 34 18 ENE 80 60
15.05.2019 16:00:00 -7,0 -9,1 37 20 ENE 75 60
15.05.2019 15:00:00 -7,8 -10,3 22 12 ENE 75 60
15.05.2019 14:00:00 -8,0 -12,2 37 20 ENE 80 60
15.05.2019 13:00:00 -8,0 -12,2 37 20 ENE 75 60
15.05.2019 12:00:00 -8,2 -13,1 28 15 E 80 60
15.05.2019 11:00:00 -8,4 -15,2 18 10 NE 75 60
15.05.2019 10:00:00 -8,6 -18,4 18 10 NE 80 60
15.05.2019 09:00:00 -7,8 -19,1 37 20 NE 80 60
15.05.2019 08:00:00 -8,8 -21,2 46 25 NE 75 6
15.05.2019 07:00:00 -10,6 -30,0 37 20 ENE 50 0
15.05.2019 06:00:00 -13,2 -14,0 55 30 ENE 30 -
15.05.2019 05:00:00 -14,0 -14,0 37 20 ENE 0,1 -

tt = temperature
td = dewpoint
ff = wind speed
dd = wind direction
vv = visibility
sd = sunshine duration

Next stations